sensor_id;sensor_type;location;lat;lon;timestamp;pressure;altitude;pressure_sealevel;temperature;humidity
69127;BME280;56688;50.234;19.292;2023-08-21T00:01:41;99015.35;;;19.47;83.94
69127;BME280;56688;50.234;19.292;2023-08-21T00:04:08;99010.33;;;19.45;83.54
69127;BME280;56688;50.234;19.292;2023-08-21T00:06:35;99013.61;;;19.42;83.31
69127;BME280;56688;50.234;19.292;2023-08-21T00:09:02;99012.08;;;19.37;83.37
69127;BME280;56688;50.234;19.292;2023-08-21T00:11:29;99012.81;;;19.34;83.74
69127;BME280;56688;50.234;19.292;2023-08-21T00:13:56;99014.38;;;19.32;83.82
69127;BME280;56688;50.234;19.292;2023-08-21T00:16:23;99015.08;;;19.30;83.85
69127;BME280;56688;50.234;19.292;2023-08-21T00:18:51;99009.39;;;19.27;83.86
69127;BME280;56688;50.234;19.292;2023-08-21T00:21:19;99011.58;;;19.26;83.50
69127;BME280;56688;50.234;19.292;2023-08-21T00:23:46;99006.98;;;19.25;83.13
69127;BME280;56688;50.234;19.292;2023-08-21T00:26:13;99005.13;;;19.21;82.73
69127;BME280;56688;50.234;19.292;2023-08-21T00:28:40;99000.27;;;19.18;82.68
69127;BME280;56688;50.234;19.292;2023-08-21T00:31:07;98999.35;;;19.14;82.87
69127;BME280;56688;50.234;19.292;2023-08-21T00:33:33;99003.87;;;19.10;83.41
69127;BME280;56688;50.234;19.292;2023-08-21T00:36:00;99009.06;;;19.10;83.73
69127;BME280;56688;50.234;19.292;2023-08-21T00:38:28;99007.98;;;19.10;83.35
69127;BME280;56688;50.234;19.292;2023-08-21T00:40:55;99004.23;;;19.08;83.16
69127;BME280;56688;50.234;19.292;2023-08-21T00:43:21;99002.45;;;19.06;82.90
69127;BME280;56688;50.234;19.292;2023-08-21T00:45:49;99002.67;;;19.02;82.69
69127;BME280;56688;50.234;19.292;2023-08-21T00:48:18;99010.97;;;19.01;83.07
69127;BME280;56688;50.234;19.292;2023-08-21T00:50:45;99008.84;;;18.98;83.36
69127;BME280;56688;50.234;19.292;2023-08-21T00:53:12;99005.19;;;18.95;83.31
69127;BME280;56688;50.234;19.292;2023-08-21T00:55:40;99000.94;;;18.92;83.10
69127;BME280;56688;50.234;19.292;2023-08-21T00:58:09;99008.48;;;18.88;82.98
69127;BME280;56688;50.234;19.292;2023-08-21T01:00:38;99012.67;;;18.86;83.11
69127;BME280;56688;50.234;19.292;2023-08-21T01:03:06;99012.23;;;18.85;83.02
69127;BME280;56688;50.234;19.292;2023-08-21T01:05:35;99011.40;;;18.82;82.68
69127;BME280;56688;50.234;19.292;2023-08-21T01:08:05;99014.31;;;18.78;82.90
69127;BME280;56688;50.234;19.292;2023-08-21T01:15:59;99012.73;;;18.73;84.13
69127;BME280;56688;50.234;19.292;2023-08-21T01:18:28;99013.98;;;18.74;83.74
69127;BME280;56688;50.234;19.292;2023-08-21T01:20:55;99012.90;;;18.73;83.36
69127;BME280;56688;50.234;19.292;2023-08-21T01:23:40;99012.31;;;18.74;83.17
69127;BME280;56688;50.234;19.292;2023-08-21T01:26:08;99010.40;;;18.73;82.84
69127;BME280;56688;50.234;19.292;2023-08-21T01:28:35;99012.23;;;18.73;82.59
69127;BME280;56688;50.234;19.292;2023-08-21T01:31:17;99011.71;;;18.70;82.77
69127;BME280;56688;50.234;19.292;2023-08-21T01:33:49;99011.14;;;18.67;82.74
69127;BME280;56688;50.234;19.292;2023-08-21T01:36:18;99009.13;;;18.62;82.48
69127;BME280;56688;50.234;19.292;2023-08-21T01:38:46;99012.91;;;18.57;82.44
69127;BME280;56688;50.234;19.292;2023-08-21T01:41:13;99012.21;;;18.54;82.69
69127;BME280;56688;50.234;19.292;2023-08-21T01:43:40;99017.48;;;18.53;83.32
69127;BME280;56688;50.234;19.292;2023-08-21T01:46:08;99019.76;;;18.54;83.62
69127;BME280;56688;50.234;19.292;2023-08-21T01:48:35;99019.71;;;18.52;83.71
69127;BME280;56688;50.234;19.292;2023-08-21T01:51:02;99013.26;;;18.49;83.41
69127;BME280;56688;50.234;19.292;2023-08-21T01:53:29;99012.02;;;18.48;83.01
69127;BME280;56688;50.234;19.292;2023-08-21T01:55:56;99011.65;;;18.44;82.86
69127;BME280;56688;50.234;19.292;2023-08-21T01:58:23;99012.54;;;18.40;82.71
69127;BME280;56688;50.234;19.292;2023-08-21T02:00:50;99013.62;;;18.35;82.46
69127;BME280;56688;50.234;19.292;2023-08-21T02:03:17;99011.67;;;18.30;82.63
69127;BME280;56688;50.234;19.292;2023-08-21T02:05:44;99012.33;;;18.25;82.56
69127;BME280;56688;50.234;19.292;2023-08-21T02:08:13;99009.71;;;18.20;82.52
69127;BME280;56688;50.234;19.292;2023-08-21T02:10:55;99014.33;;;18.17;82.58
69127;BME280;56688;50.234;19.292;2023-08-21T02:13:22;99014.77;;;18.14;82.93
69127;BME280;56688;50.234;19.292;2023-08-21T02:15:49;99008.14;;;18.13;83.26
69127;BME280;56688;50.234;19.292;2023-08-21T02:18:16;99005.71;;;18.10;83.71
69127;BME280;56688;50.234;19.292;2023-08-21T02:20:43;99004.35;;;18.09;84.20
69127;BME280;56688;50.234;19.292;2023-08-21T02:23:10;99006.02;;;18.08;84.67
69127;BME280;56688;50.234;19.292;2023-08-21T02:25:37;99004.77;;;18.07;85.09
69127;BME280;56688;50.234;19.292;2023-08-21T02:28:04;98994.36;;;18.06;85.71
69127;BME280;56688;50.234;19.292;2023-08-21T02:30:31;98995.86;;;18.08;86.18
69127;BME280;56688;50.234;19.292;2023-08-21T02:32:58;98996.57;;;18.08;86.83
69127;BME280;56688;50.234;19.292;2023-08-21T02:35:25;98991.33;;;18.10;87.44
69127;BME280;56688;50.234;19.292;2023-08-21T02:37:52;98986.33;;;18.11;87.82
69127;BME280;56688;50.234;19.292;2023-08-21T02:40:19;98982.88;;;18.11;88.41
69127;BME280;56688;50.234;19.292;2023-08-21T02:42:46;98986.45;;;18.13;88.85
69127;BME280;56688;50.234;19.292;2023-08-21T02:45:13;98987.61;;;18.17;89.15
69127;BME280;56688;50.234;19.292;2023-08-21T02:47:41;98985.85;;;18.22;89.06
69127;BME280;56688;50.234;19.292;2023-08-21T02:50:09;98981.01;;;18.23;88.95
69127;BME280;56688;50.234;19.292;2023-08-21T02:52:37;98977.25;;;18.25;88.99
69127;BME280;56688;50.234;19.292;2023-08-21T02:55:05;98975.66;;;18.29;88.73
69127;BME280;56688;50.234;19.292;2023-08-21T02:57:32;98976.38;;;18.31;88.21
69127;BME280;56688;50.234;19.292;2023-08-21T02:59:59;98973.41;;;18.31;87.65
69127;BME280;56688;50.234;19.292;2023-08-21T03:02:26;98968.84;;;18.28;87.80
69127;BME280;56688;50.234;19.292;2023-08-21T03:04:54;98972.20;;;18.29;88.23
69127;BME280;56688;50.234;19.292;2023-08-21T03:07:21;98975.65;;;18.32;88.30
69127;BME280;56688;50.234;19.292;2023-08-21T03:09:49;98977.91;;;18.36;88.36
69127;BME280;56688;50.234;19.292;2023-08-21T03:12:16;98974.13;;;18.38;88.10
69127;BME280;56688;50.234;19.292;2023-08-21T03:14:43;98972.73;;;18.40;87.62
69127;BME280;56688;50.234;19.292;2023-08-21T03:17:10;98974.85;;;18.42;87.17
69127;BME280;56688;50.234;19.292;2023-08-21T03:19:37;98975.89;;;18.42;87.14
69127;BME280;56688;50.234;19.292;2023-08-21T03:22:04;98978.02;;;18.40;87.34
69127;BME280;56688;50.234;19.292;2023-08-21T03:24:32;98978.52;;;18.37;87.55
69127;BME280;56688;50.234;19.292;2023-08-21T03:26:59;98976.71;;;18.35;87.14
69127;BME280;56688;50.234;19.292;2023-08-21T03:29:26;98981.50;;;18.30;87.35
69127;BME280;56688;50.234;19.292;2023-08-21T03:31:53;98987.85;;;18.27;87.47
69127;BME280;56688;50.234;19.292;2023-08-21T03:34:22;98990.41;;;18.28;87.48
69127;BME280;56688;50.234;19.292;2023-08-21T03:36:51;98991.34;;;18.32;87.58
69127;BME280;56688;50.234;19.292;2023-08-21T03:39:18;98992.21;;;18.36;87.48
69127;BME280;56688;50.234;19.292;2023-08-21T03:41:46;99000.10;;;18.42;87.30
69127;BME280;56688;50.234;19.292;2023-08-21T03:44:14;98999.64;;;18.45;86.59
69127;BME280;56688;50.234;19.292;2023-08-21T03:46:41;99004.50;;;18.46;86.38
69127;BME280;56688;50.234;19.292;2023-08-21T03:49:08;99007.39;;;18.47;86.12
69127;BME280;56688;50.234;19.292;2023-08-21T03:51:35;99007.81;;;18.47;85.82
69127;BME280;56688;50.234;19.292;2023-08-21T03:54:06;99003.73;;;18.45;85.36
69127;BME280;56688;50.234;19.292;2023-08-21T03:56:35;99007.58;;;18.46;85.16
69127;BME280;56688;50.234;19.292;2023-08-21T03:59:02;99005.66;;;18.44;84.61
69127;BME280;56688;50.234;19.292;2023-08-21T04:01:30;99003.84;;;18.42;84.17
69127;BME280;56688;50.234;19.292;2023-08-21T04:03:57;99002.57;;;18.39;84.11
69127;BME280;56688;50.234;19.292;2023-08-21T04:06:24;98998.69;;;18.38;84.02
69127;BME280;56688;50.234;19.292;2023-08-21T04:08:51;98997.70;;;18.35;83.92
69127;BME280;56688;50.234;19.292;2023-08-21T04:11:18;98999.37;;;18.34;84.27
69127;BME280;56688;50.234;19.292;2023-08-21T04:13:46;99003.15;;;18.34;84.33
69127;BME280;56688;50.234;19.292;2023-08-21T04:16:13;99000.83;;;18.37;84.63
69127;BME280;56688;50.234;19.292;2023-08-21T04:18:41;98995.75;;;18.40;84.90
69127;BME280;56688;50.234;19.292;2023-08-21T04:21:09;98995.23;;;18.45;84.83
69127;BME280;56688;50.234;19.292;2023-08-21T04:23:36;98998.75;;;18.51;84.59
69127;BME280;56688;50.234;19.292;2023-08-21T04:26:04;99001.59;;;18.56;84.17
69127;BME280;56688;50.234;19.292;2023-08-21T04:28:32;99001.75;;;18.59;84.01
69127;BME280;56688;50.234;19.292;2023-08-21T04:31:00;99001.90;;;18.61;83.94
69127;BME280;56688;50.234;19.292;2023-08-21T04:33:28;99005.21;;;18.62;84.19
69127;BME280;56688;50.234;19.292;2023-08-21T04:35:56;99002.11;;;18.66;84.29
69127;BME280;56688;50.234;19.292;2023-08-21T04:38:23;99003.02;;;18.71;84.33
69127;BME280;56688;50.234;19.292;2023-08-21T04:40:51;98997.41;;;18.76;84.38
69127;BME280;56688;50.234;19.292;2023-08-21T04:43:18;98992.02;;;18.80;84.46
69127;BME280;56688;50.234;19.292;2023-08-21T04:45:48;98985.27;;;18.85;84.72
69127;BME280;56688;50.234;19.292;2023-08-21T04:48:16;98977.42;;;18.93;84.83
69127;BME280;56688;50.234;19.292;2023-08-21T04:50:45;98983.08;;;19.02;85.08
69127;BME280;56688;50.234;19.292;2023-08-21T04:53:13;98987.29;;;19.12;85.46
69127;BME280;56688;50.234;19.292;2023-08-21T04:55:41;98987.19;;;19.23;85.79
69127;BME280;56688;50.234;19.292;2023-08-21T04:58:09;98992.20;;;19.35;86.06
69127;BME280;56688;50.234;19.292;2023-08-21T05:00:37;98995.80;;;19.47;86.28
69127;BME280;56688;50.234;19.292;2023-08-21T05:03:06;98996.83;;;19.59;86.34
69127;BME280;56688;50.234;19.292;2023-08-21T05:05:33;99006.39;;;19.76;86.27
69127;BME280;56688;50.234;19.292;2023-08-21T05:08:00;99006.64;;;19.92;85.99
69127;BME280;56688;50.234;19.292;2023-08-21T05:10:27;99005.73;;;20.10;85.69
69127;BME280;56688;50.234;19.292;2023-08-21T05:12:56;99006.87;;;20.26;85.35
69127;BME280;56688;50.234;19.292;2023-08-21T05:15:24;99005.64;;;20.45;85.38
69127;BME280;56688;50.234;19.292;2023-08-21T05:17:51;99002.90;;;20.63;85.60
69127;BME280;56688;50.234;19.292;2023-08-21T05:20:19;99009.77;;;20.79;85.71
69127;BME280;56688;50.234;19.292;2023-08-21T05:22:46;99010.80;;;20.96;85.78
69127;BME280;56688;50.234;19.292;2023-08-21T05:25:13;99004.64;;;21.13;86.02
69127;BME280;56688;50.234;19.292;2023-08-21T05:27:41;98996.48;;;21.30;86.22
69127;BME280;56688;50.234;19.292;2023-08-21T05:30:08;98992.06;;;21.45;86.43
69127;BME280;56688;50.234;19.292;2023-08-21T05:32:37;98990.97;;;21.61;86.55
69127;BME280;56688;50.234;19.292;2023-08-21T05:35:05;98988.75;;;21.76;86.26
69127;BME280;56688;50.234;19.292;2023-08-21T05:37:33;98989.06;;;21.89;86.31
69127;BME280;56688;50.234;19.292;2023-08-21T05:40:01;98990.69;;;22.05;85.21
69127;BME280;56688;50.234;19.292;2023-08-21T05:42:28;98999.67;;;22.19;84.97
69127;BME280;56688;50.234;19.292;2023-08-21T05:44:55;99010.08;;;22.35;84.44
69127;BME280;56688;50.234;19.292;2023-08-21T05:47:23;99011.21;;;22.52;83.78
69127;BME280;56688;50.234;19.292;2023-08-21T05:49:51;99009.53;;;22.70;83.59
69127;BME280;56688;50.234;19.292;2023-08-21T05:52:21;99014.58;;;22.90;83.07
69127;BME280;56688;50.234;19.292;2023-08-21T05:54:49;99014.23;;;23.09;82.02
69127;BME280;56688;50.234;19.292;2023-08-21T05:57:17;99011.42;;;23.28;80.99
69127;BME280;56688;50.234;19.292;2023-08-21T05:59:45;99013.34;;;23.48;80.79
69127;BME280;56688;50.234;19.292;2023-08-21T06:02:13;99016.42;;;23.67;79.45
69127;BME280;56688;50.234;19.292;2023-08-21T06:04:42;99019.83;;;23.82;78.02
69127;BME280;56688;50.234;19.292;2023-08-21T06:07:10;99025.70;;;23.97;77.08
69127;BME280;56688;50.234;19.292;2023-08-21T06:09:37;99023.80;;;24.07;75.16
69127;BME280;56688;50.234;19.292;2023-08-21T06:12:08;99028.70;;;24.13;74.23
69127;BME280;56688;50.234;19.292;2023-08-21T06:14:36;99037.98;;;24.22;74.14
69127;BME280;56688;50.234;19.292;2023-08-21T06:17:04;99042.81;;;24.33;73.85
69127;BME280;56688;50.234;19.292;2023-08-21T06:19:33;99047.29;;;24.41;73.62
69127;BME280;56688;50.234;19.292;2023-08-21T06:22:00;99051.44;;;24.51;73.14
69127;BME280;56688;50.234;19.292;2023-08-21T06:24:27;99046.75;;;24.64;72.87
69127;BME280;56688;50.234;19.292;2023-08-21T06:26:59;99042.90;;;24.87;71.90
69127;BME280;56688;50.234;19.292;2023-08-21T06:29:27;99041.45;;;24.99;69.96
69127;BME280;56688;50.234;19.292;2023-08-21T06:31:54;99046.15;;;24.98;69.71
69127;BME280;56688;50.234;19.292;2023-08-21T06:34:22;99047.23;;;25.04;70.53
69127;BME280;56688;50.234;19.292;2023-08-21T06:36:50;99053.01;;;25.10;70.25
69127;BME280;56688;50.234;19.292;2023-08-21T06:39:17;99052.18;;;25.10;69.48
69127;BME280;56688;50.234;19.292;2023-08-21T06:41:44;99052.61;;;25.06;69.58
69127;BME280;56688;50.234;19.292;2023-08-21T06:44:17;99052.92;;;25.04;69.83
69127;BME280;56688;50.234;19.292;2023-08-21T06:46:44;99049.80;;;25.03;69.83
69127;BME280;56688;50.234;19.292;2023-08-21T06:49:15;99058.70;;;25.09;70.16
69127;BME280;56688;50.234;19.292;2023-08-21T06:51:42;99065.59;;;25.17;71.20
69127;BME280;56688;50.234;19.292;2023-08-21T06:54:09;99076.95;;;25.28;71.45
69127;BME280;56688;50.234;19.292;2023-08-21T06:56:36;99078.59;;;25.35;71.79
69127;BME280;56688;50.234;19.292;2023-08-21T06:59:03;99080.36;;;25.44;71.96
69127;BME280;56688;50.234;19.292;2023-08-21T07:01:30;99084.92;;;25.54;71.20
69127;BME280;56688;50.234;19.292;2023-08-21T07:03:57;99082.09;;;25.58;70.52
69127;BME280;56688;50.234;19.292;2023-08-21T07:06:27;99090.48;;;25.69;69.93
69127;BME280;56688;50.234;19.292;2023-08-21T07:08:55;99099.37;;;25.77;69.02
69127;BME280;56688;50.234;19.292;2023-08-21T07:11:22;99099.43;;;25.84;68.54
69127;BME280;56688;50.234;19.292;2023-08-21T07:13:49;99101.02;;;25.91;68.77
69127;BME280;56688;50.234;19.292;2023-08-21T07:16:16;99096.95;;;25.98;68.19
69127;BME280;56688;50.234;19.292;2023-08-21T07:18:43;99089.73;;;26.07;68.13
69127;BME280;56688;50.234;19.292;2023-08-21T07:21:10;99095.29;;;26.22;67.29
69127;BME280;56688;50.234;19.292;2023-08-21T07:23:58;99103.67;;;26.42;66.94
69127;BME280;56688;50.234;19.292;2023-08-21T07:26:25;99103.58;;;26.56;66.55
69127;BME280;56688;50.234;19.292;2023-08-21T07:28:53;99101.53;;;26.68;65.57
69127;BME280;56688;50.234;19.292;2023-08-21T07:31:20;99103.64;;;26.75;65.34
69127;BME280;56688;50.234;19.292;2023-08-21T07:33:47;99102.15;;;26.79;64.45
69127;BME280;56688;50.234;19.292;2023-08-21T07:36:14;99106.27;;;26.78;64.11
69127;BME280;56688;50.234;19.292;2023-08-21T07:38:44;99106.83;;;26.74;64.18
69127;BME280;56688;50.234;19.292;2023-08-21T07:41:12;99109.80;;;26.68;63.90
69127;BME280;56688;50.234;19.292;2023-08-21T07:43:41;99109.44;;;26.62;64.12
69127;BME280;56688;50.234;19.292;2023-08-21T07:46:10;99111.80;;;26.58;64.50
69127;BME280;56688;50.234;19.292;2023-08-21T07:48:40;99112.41;;;26.58;64.75
69127;BME280;56688;50.234;19.292;2023-08-21T07:51:08;99114.65;;;26.58;64.50
69127;BME280;56688;50.234;19.292;2023-08-21T07:53:35;99111.76;;;26.55;64.86
69127;BME280;56688;50.234;19.292;2023-08-21T07:56:03;99114.29;;;26.55;64.98
69127;BME280;56688;50.234;19.292;2023-08-21T07:58:31;99109.34;;;26.57;64.72
69127;BME280;56688;50.234;19.292;2023-08-21T08:00:58;99106.60;;;26.56;64.78
69127;BME280;56688;50.234;19.292;2023-08-21T08:03:25;99106.62;;;26.55;64.65
69127;BME280;56688;50.234;19.292;2023-08-21T08:05:53;99108.86;;;26.50;65.24
69127;BME280;56688;50.234;19.292;2023-08-21T08:08:22;99106.24;;;26.48;65.89
69127;BME280;56688;50.234;19.292;2023-08-21T08:10:49;99105.09;;;26.48;66.11
69127;BME280;56688;50.234;19.292;2023-08-21T08:13:17;99110.33;;;26.51;66.18
69127;BME280;56688;50.234;19.292;2023-08-21T08:15:44;99112.14;;;26.53;66.58
69127;BME280;56688;50.234;19.292;2023-08-21T08:18:12;99112.19;;;26.57;66.05
69127;BME280;56688;50.234;19.292;2023-08-21T08:20:41;99113.45;;;26.63;65.62
69127;BME280;56688;50.234;19.292;2023-08-21T08:23:08;99113.90;;;26.67;65.34
69127;BME280;56688;50.234;19.292;2023-08-21T08:25:35;99113.95;;;26.71;64.70
69127;BME280;56688;50.234;19.292;2023-08-21T08:28:02;99112.57;;;26.75;64.44
69127;BME280;56688;50.234;19.292;2023-08-21T08:30:29;99105.78;;;26.77;64.32
69127;BME280;56688;50.234;19.292;2023-08-21T08:32:56;99104.79;;;26.78;64.24
69127;BME280;56688;50.234;19.292;2023-08-21T08:35:23;99097.86;;;26.82;64.20
69127;BME280;56688;50.234;19.292;2023-08-21T08:37:50;99099.33;;;26.85;64.06
69127;BME280;56688;50.234;19.292;2023-08-21T08:40:17;99100.45;;;26.91;63.79
69127;BME280;56688;50.234;19.292;2023-08-21T08:42:44;99098.39;;;26.92;63.95
69127;BME280;56688;50.234;19.292;2023-08-21T08:45:13;99099.48;;;26.92;63.76
69127;BME280;56688;50.234;19.292;2023-08-21T08:47:41;99097.98;;;26.93;64.68
69127;BME280;56688;50.234;19.292;2023-08-21T08:50:09;99100.48;;;26.98;64.52
69127;BME280;56688;50.234;19.292;2023-08-21T08:52:39;99102.92;;;27.07;64.06
69127;BME280;56688;50.234;19.292;2023-08-21T08:55:07;99098.19;;;27.25;63.79
69127;BME280;56688;50.234;19.292;2023-08-21T08:57:35;99094.82;;;27.61;63.79
69127;BME280;56688;50.234;19.292;2023-08-21T09:00:03;99097.02;;;28.26;61.11
69127;BME280;56688;50.234;19.292;2023-08-21T09:02:31;99094.89;;;28.86;58.82
69127;BME280;56688;50.234;19.292;2023-08-21T09:04:58;99097.52;;;29.29;58.21
69127;BME280;56688;50.234;19.292;2023-08-21T09:07:25;99090.36;;;29.90;57.34
69127;BME280;56688;50.234;19.292;2023-08-21T09:09:53;99087.20;;;30.45;54.31
69127;BME280;56688;50.234;19.292;2023-08-21T09:12:20;99087.73;;;30.73;54.07
69127;BME280;56688;50.234;19.292;2023-08-21T09:14:47;99084.17;;;30.96;52.69
69127;BME280;56688;50.234;19.292;2023-08-21T09:17:15;99087.63;;;31.31;51.87
69127;BME280;56688;50.234;19.292;2023-08-21T09:19:43;99087.74;;;31.62;50.66
69127;BME280;56688;50.234;19.292;2023-08-21T09:22:13;99081.40;;;32.03;50.82
69127;BME280;56688;50.234;19.292;2023-08-21T09:25:02;99076.50;;;32.50;48.94
69127;BME280;56688;50.234;19.292;2023-08-21T09:27:35;99077.44;;;32.98;47.94
69127;BME280;56688;50.234;19.292;2023-08-21T09:30:05;99072.84;;;33.26;47.34
69127;BME280;56688;50.234;19.292;2023-08-21T09:32:52;99072.52;;;33.51;47.13
69127;BME280;56688;50.234;19.292;2023-08-21T09:35:22;99066.23;;;33.92;46.61
69127;BME280;56688;50.234;19.292;2023-08-21T09:37:50;99063.48;;;34.31;45.92
69127;BME280;56688;50.234;19.292;2023-08-21T09:40:21;99061.23;;;34.60;44.62
69127;BME280;56688;50.234;19.292;2023-08-21T09:42:53;99055.41;;;34.88;43.90
69127;BME280;56688;50.234;19.292;2023-08-21T09:45:22;99048.14;;;35.11;42.23
69127;BME280;56688;50.234;19.292;2023-08-21T09:47:51;99044.54;;;35.20;42.26
69127;BME280;56688;50.234;19.292;2023-08-21T09:50:20;99040.52;;;35.25;42.56
69127;BME280;56688;50.234;19.292;2023-08-21T09:52:47;99037.08;;;35.20;43.11
69127;BME280;56688;50.234;19.292;2023-08-21T09:55:15;99036.84;;;35.22;42.78
69127;BME280;56688;50.234;19.292;2023-08-21T09:57:42;99037.41;;;35.10;43.16
69127;BME280;56688;50.234;19.292;2023-08-21T10:00:10;99036.56;;;34.91;42.93
69127;BME280;56688;50.234;19.292;2023-08-21T10:02:53;99029.71;;;34.79;43.15
69127;BME280;56688;50.234;19.292;2023-08-21T10:05:20;99030.92;;;34.79;43.66
69127;BME280;56688;50.234;19.292;2023-08-21T10:07:50;99023.75;;;34.90;43.36
69127;BME280;56688;50.234;19.292;2023-08-21T10:10:17;99021.15;;;35.00;42.72
69127;BME280;56688;50.234;19.292;2023-08-21T10:12:44;99020.25;;;35.01;42.08
69127;BME280;56688;50.234;19.292;2023-08-21T10:15:11;99023.64;;;34.99;42.83
69127;BME280;56688;50.234;19.292;2023-08-21T10:17:39;99022.80;;;34.99;44.19
69127;BME280;56688;50.234;19.292;2023-08-21T10:20:07;99024.65;;;35.00;42.91
69127;BME280;56688;50.234;19.292;2023-08-21T10:25:14;99026.02;;;34.89;42.55
69127;BME280;56688;50.234;19.292;2023-08-21T10:27:43;99022.48;;;34.66;42.50
69127;BME280;56688;50.234;19.292;2023-08-21T10:30:13;99022.56;;;34.39;43.11
69127;BME280;56688;50.234;19.292;2023-08-21T10:32:45;99016.54;;;34.17;44.98
69127;BME280;56688;50.234;19.292;2023-08-21T10:35:14;99022.95;;;34.19;45.17
69127;BME280;56688;50.234;19.292;2023-08-21T10:41:05;99022.34;;;34.05;44.80
69127;BME280;56688;50.234;19.292;2023-08-21T10:43:41;99021.23;;;34.17;44.75
69127;BME280;56688;50.234;19.292;2023-08-21T10:46:11;99018.84;;;34.21;43.16
69127;BME280;56688;50.234;19.292;2023-08-21T10:48:39;99019.20;;;34.18;43.53
69127;BME280;56688;50.234;19.292;2023-08-21T10:51:07;99016.25;;;34.25;45.19
69127;BME280;56688;50.234;19.292;2023-08-21T10:53:36;99016.17;;;34.33;43.02
69127;BME280;56688;50.234;19.292;2023-08-21T10:56:12;99013.20;;;34.21;41.61
69127;BME280;56688;50.234;19.292;2023-08-21T10:58:44;99015.55;;;33.96;42.63
69127;BME280;56688;50.234;19.292;2023-08-21T11:01:13;99013.38;;;33.84;44.12
69127;BME280;56688;50.234;19.292;2023-08-21T11:03:46;99010.08;;;33.72;44.06
69127;BME280;56688;50.234;19.292;2023-08-21T11:06:13;99006.38;;;33.60;45.11
69127;BME280;56688;50.234;19.292;2023-08-21T11:08:40;99011.02;;;33.49;44.49
69127;BME280;56688;50.234;19.292;2023-08-21T11:11:10;99005.30;;;33.27;45.49
69127;BME280;56688;50.234;19.292;2023-08-21T11:13:37;99005.64;;;32.98;45.86
69127;BME280;56688;50.234;19.292;2023-08-21T11:16:05;99004.70;;;32.69;45.84
69127;BME280;56688;50.234;19.292;2023-08-21T11:18:37;99011.83;;;32.32;46.61
69127;BME280;56688;50.234;19.292;2023-08-21T11:21:10;99020.93;;;31.98;48.73
69127;BME280;56688;50.234;19.292;2023-08-21T11:23:40;99015.79;;;31.77;49.32
69127;BME280;56688;50.234;19.292;2023-08-21T11:26:11;99009.95;;;31.48;49.35
69127;BME280;56688;50.234;19.292;2023-08-21T11:28:47;99007.21;;;31.27;50.25
69127;BME280;56688;50.234;19.292;2023-08-21T11:31:15;99008.77;;;31.08;50.37
69127;BME280;56688;50.234;19.292;2023-08-21T11:33:49;99006.78;;;30.86;50.38
69127;BME280;56688;50.234;19.292;2023-08-21T11:36:18;99000.04;;;30.74;51.32
69127;BME280;56688;50.234;19.292;2023-08-21T11:38:59;98999.55;;;30.66;51.38
69127;BME280;56688;50.234;19.292;2023-08-21T11:41:27;98997.58;;;30.59;51.67
69127;BME280;56688;50.234;19.292;2023-08-21T11:44:02;98992.21;;;30.49;52.47
69127;BME280;56688;50.234;19.292;2023-08-21T11:46:30;98991.76;;;30.50;53.44
69127;BME280;56688;50.234;19.292;2023-08-21T11:49:00;98996.32;;;30.48;51.97
69127;BME280;56688;50.234;19.292;2023-08-21T11:51:27;98998.35;;;30.46;52.59
69127;BME280;56688;50.234;19.292;2023-08-21T11:53:54;99004.92;;;30.48;53.69
69127;BME280;56688;50.234;19.292;2023-08-21T11:56:21;99002.27;;;30.56;52.69
69127;BME280;56688;50.234;19.292;2023-08-21T11:58:50;99002.48;;;30.65;52.04
69127;BME280;56688;50.234;19.292;2023-08-21T12:01:18;99002.79;;;30.77;52.56
69127;BME280;56688;50.234;19.292;2023-08-21T12:03:46;99002.79;;;30.90;51.25
69127;BME280;56688;50.234;19.292;2023-08-21T12:06:13;99001.57;;;31.19;51.51
69127;BME280;56688;50.234;19.292;2023-08-21T12:08:41;98992.80;;;31.83;50.64
69127;BME280;56688;50.234;19.292;2023-08-21T12:11:08;98997.34;;;32.52;48.76
69127;BME280;56688;50.234;19.292;2023-08-21T12:13:35;98995.27;;;32.81;46.69
69127;BME280;56688;50.234;19.292;2023-08-21T12:16:03;98993.95;;;32.98;46.17
69127;BME280;56688;50.234;19.292;2023-08-21T12:18:30;98992.86;;;33.38;46.15
69127;BME280;56688;50.234;19.292;2023-08-21T12:20:58;98993.96;;;33.77;44.48
69127;BME280;56688;50.234;19.292;2023-08-21T12:23:25;98989.99;;;34.17;43.69
69127;BME280;56688;50.234;19.292;2023-08-21T12:25:53;98995.92;;;34.62;43.01
69127;BME280;56688;50.234;19.292;2023-08-21T12:28:20;98994.38;;;34.97;41.30
69127;BME280;56688;50.234;19.292;2023-08-21T12:30:47;98993.86;;;35.36;41.66
69127;BME280;56688;50.234;19.292;2023-08-21T12:33:15;98991.75;;;35.78;40.38
69127;BME280;56688;50.234;19.292;2023-08-21T12:35:50;98990.91;;;36.25;39.45
69127;BME280;56688;50.234;19.292;2023-08-21T12:38:17;98983.72;;;36.65;39.00
69127;BME280;56688;50.234;19.292;2023-08-21T12:40:45;98985.08;;;36.92;37.76
69127;BME280;56688;50.234;19.292;2023-08-21T12:43:12;98985.22;;;37.20;37.44
69127;BME280;56688;50.234;19.292;2023-08-21T12:45:40;98977.30;;;37.58;36.31
69127;BME280;56688;50.234;19.292;2023-08-21T12:48:08;98981.73;;;38.06;35.00
69127;BME280;56688;50.234;19.292;2023-08-21T12:50:36;98980.29;;;38.53;33.98
69127;BME280;56688;50.234;19.292;2023-08-21T12:53:03;98976.84;;;38.69;33.21
69127;BME280;56688;50.234;19.292;2023-08-21T12:55:31;98971.12;;;38.67;32.58
69127;BME280;56688;50.234;19.292;2023-08-21T12:57:58;98967.99;;;38.60;32.54
69127;BME280;56688;50.234;19.292;2023-08-21T13:00:25;98966.12;;;38.45;32.28
69127;BME280;56688;50.234;19.292;2023-08-21T13:02:53;98966.54;;;38.46;32.49
69127;BME280;56688;50.234;19.292;2023-08-21T13:05:21;98959.98;;;38.62;32.17
69127;BME280;56688;50.234;19.292;2023-08-21T13:07:48;98957.08;;;38.64;32.06